Time;durP1;ratioP1;P1;durP2;ratioP2;P2;SDS_P1;SDS_P2;PMS_P1;PMS_P2;Temp;Humidity;BMP_temperature;BMP_pressure;BME280_temperature;BME280_humidity;BME280_pressure;Samples;Min_cycle;Max_cycle;Signal;HPM_P1;HPM_P2
2021/03/03 00:02:25;;;;;;;24.33;12.33;;;;;;;;;;10453055;28;20352;-70
2021/03/03 00:07:27;;;;;;;24.50;11.90;;;;;;;;;;10455115;28;20220;-72
2021/03/03 00:12:29;;;;;;;21.30;11.40;;;;;;;;;;10476634;28;20322;-71
2021/03/03 00:17:31;;;;;;;18.80;9.13;;;;;;;;;;10478358;28;20211;-75
2021/03/03 00:22:33;;;;;;;21.73;10.67;;;;;;;;;;10498802;28;20624;-71
2021/03/03 00:27:35;;;;;;;22.10;11.43;;;;;;;;;;10485153;28;20216;-72
2021/03/03 00:32:49;;;;;;;23.03;10.93;;;;;;;;;;10482435;28;20256;-70
2021/03/03 00:37:50;;;;;;;21.60;11.10;;;;;;;;;;10485797;28;20220;-73
2021/03/03 00:42:53;;;;;;;20.50;9.70;;;;;;;;;;10489970;28;20261;-72
2021/03/03 00:47:54;;;;;;;19.80;9.40;;;;;;;;;;10465493;28;20213;-70
2021/03/03 00:52:56;;;;;;;17.67;8.03;;;;;;;;;;10494903;28;20290;-71
2021/03/03 00:57:58;;;;;;;19.30;9.20;;;;;;;;;;10476818;28;20241;-70
2021/03/03 01:03:08;;;;;;;16.77;7.80;;;;;;;;;;10436238;28;20258;-71
2021/03/03 01:08:10;;;;;;;14.60;7.90;;;;;;;;;;10452152;28;20316;-70
2021/03/03 01:13:12;;;;;;;15.07;7.90;;;;;;;;;;10496793;28;20659;-74
2021/03/03 01:18:14;;;;;;;15.50;7.70;;;;;;;;;;10460783;28;20220;-72
2021/03/03 01:23:15;;;;;;;13.80;7.47;;;;;;;;;;10476186;28;20617;-71
2021/03/03 01:28:18;;;;;;;16.03;7.37;;;;;;;;;;10470083;28;20256;-72
2021/03/03 01:33:30;;;;;;;12.90;6.90;;;;;;;;;;10506966;28;20330;-74
2021/03/03 01:38:31;;;;;;;14.07;6.77;;;;;;;;;;10478244;28;20208;-75
2021/03/03 01:43:34;;;;;;;13.90;6.57;;;;;;;;;;10503668;28;20185;-76
2021/03/03 01:48:36;;;;;;;13.03;6.07;;;;;;;;;;10509003;28;20296;-74
2021/03/03 01:53:37;;;;;;;11.83;5.50;;;;;;;;;;10501060;28;20279;-71
2021/03/03 01:58:40;;;;;;;13.73;5.67;;;;;;;;;;10511394;28;20288;-70
2021/03/03 02:03:51;;;;;;;12.17;5.60;;;;;;;;;;10494153;28;20566;-71
2021/03/03 02:08:56;;;;;;;13.03;5.90;;;;;;;;;;10483093;28;20220;-73
2021/03/03 02:14:04;;;;;;;12.00;5.90;;;;;;;;;;10484698;28;20322;-70
2021/03/03 02:19:06;;;;;;;11.53;5.77;;;;;;;;;;10490131;28;20207;-73
2021/03/03 02:24:10;;;;;;;10.47;5.47;;;;;;;;;;10476917;28;20223;-70
2021/03/03 02:29:13;;;;;;;11.57;5.43;;;;;;;;;;10495446;28;20871;-72
2021/03/03 02:34:15;;;;;;;11.50;5.90;;;;;;;;;;10460044;28;20410;-72
2021/03/03 02:39:18;;;;;;;13.57;5.77;;;;;;;;;;10495752;28;20216;-74
2021/03/03 02:44:21;;;;;;;12.47;6.40;;;;;;;;;;10471569;28;20199;-73
2021/03/03 02:49:23;;;;;;;12.67;6.47;;;;;;;;;;10485663;28;20219;-69
2021/03/03 02:54:24;;;;;;;15.47;6.97;;;;;;;;;;10488855;28;20235;-70
2021/03/03 02:59:28;;;;;;;12.00;5.93;;;;;;;;;;10462926;28;20240;-73
2021/03/03 03:04:36;;;;;;;18.03;6.87;;;;;;;;;;10477124;28;20306;-71
2021/03/03 03:09:38;;;;;;;15.07;7.00;;;;;;;;;;10471890;28;20351;-70
2021/03/03 03:14:41;;;;;;;11.50;5.73;;;;;;;;;;10490589;28;20680;-70
2021/03/03 03:19:45;;;;;;;13.27;5.90;;;;;;;;;;10491308;28;20308;-69
2021/03/03 03:24:46;;;;;;;13.33;6.27;;;;;;;;;;10491157;28;20307;-71
2021/03/03 03:29:49;;;;;;;11.47;5.37;;;;;;;;;;10486275;28;20295;-71
2021/03/03 03:34:58;;;;;;;11.43;5.67;;;;;;;;;;10494930;28;20590;-71
2021/03/03 03:40:00;;;;;;;13.57;6.53;;;;;;;;;;10479596;28;20224;-72
2021/03/03 03:45:07;;;;;;;13.40;6.23;;;;;;;;;;10504701;28;20214;-70
2021/03/03 03:50:09;;;;;;;11.87;5.30;;;;;;;;;;10513749;28;20231;-71
2021/03/03 03:55:11;;;;;;;11.77;5.10;;;;;;;;;;10457012;28;20272;-72
2021/03/03 04:00:14;;;;;;;11.93;5.63;;;;;;;;;;10463584;28;20722;-74
2021/03/03 04:05:21;;;;;;;10.67;5.13;;;;;;;;;;10488949;28;20204;-73
2021/03/03 04:10:24;;;;;;;14.33;6.03;;;;;;;;;;10470976;28;20219;-71
2021/03/03 04:15:26;;;;;;;13.20;6.17;;;;;;;;;;10454983;28;20196;-69
2021/03/03 04:20:28;;;;;;;13.77;6.40;;;;;;;;;;10485710;28;20250;-70
2021/03/03 04:25:30;;;;;;;13.60;6.57;;;;;;;;;;10482810;28;20581;-71
2021/03/03 04:30:33;;;;;;;13.90;6.63;;;;;;;;;;10492664;28;20218;-71
2021/03/03 04:35:42;;;;;;;13.90;6.40;;;;;;;;;;10477444;28;20212;-70
2021/03/03 04:40:44;;;;;;;12.90;6.23;;;;;;;;;;10486449;28;20224;-70
2021/03/03 04:45:47;;;;;;;11.53;5.70;;;;;;;;;;10489646;28;20212;-72
2021/03/03 04:50:49;;;;;;;12.43;5.27;;;;;;;;;;10484531;28;20228;-74
2021/03/03 04:55:51;;;;;;;13.33;5.80;;;;;;;;;;10476618;28;20201;-73
2021/03/03 05:00:53;;;;;;;13.03;5.93;;;;;;;;;;10464364;28;20232;-71
2021/03/03 05:06:07;;;;;;;13.20;6.10;;;;;;;;;;10463038;28;20213;-71
2021/03/03 05:11:09;;;;;;;12.30;5.87;;;;;;;;;;10483957;28;20363;-71
2021/03/03 05:16:11;;;;;;;11.97;5.60;;;;;;;;;;10452645;28;20193;-72
2021/03/03 05:21:13;;;;;;;11.87;5.50;;;;;;;;;;10477476;28;20220;-71
2021/03/03 05:26:15;;;;;;;10.83;5.57;;;;;;;;;;10490453;28;20772;-71
2021/03/03 05:31:18;;;;;;;10.03;5.47;;;;;;;;;;10494677;28;20688;-70
2021/03/03 05:36:33;;;;;;;13.57;5.23;;;;;;;;;;10459132;28;20310;-72
2021/03/03 05:41:35;;;;;;;11.03;3.70;;;;;;;;;;10473348;28;20251;-71
2021/03/03 05:46:38;;;;;;;11.67;5.27;;;;;;;;;;10486896;28;20270;-70
2021/03/03 05:51:41;;;;;;;12.40;5.20;;;;;;;;;;10479402;28;20197;-75
2021/03/03 05:56:43;;;;;;;11.23;4.03;;;;;;;;;;10501902;28;20185;-74
2021/03/03 06:01:45;;;;;;;12.60;3.90;;;;;;;;;;10466582;28;20192;-72
2021/03/03 06:06:56;;;;;;;9.50;3.50;;;;;;;;;;10506184;28;20238;-72
2021/03/03 06:11:58;;;;;;;10.77;3.70;;;;;;;;;;10482855;28;20300;-72
2021/03/03 06:17:03;;;;;;;13.43;4.40;;;;;;;;;;10499117;28;20312;-71
2021/03/03 06:22:21;;;;;;;8.53;3.63;;;;;;;;;;10480196;28;20541;-69
2021/03/03 06:27:23;;;;;;;9.23;3.03;;;;;;;;;;10470856;28;20216;-73
2021/03/03 06:32:25;;;;;;;13.90;3.80;;;;;;;;;;10494646;28;20653;-70
2021/03/03 06:37:27;;;;;;;9.80;3.70;;;;;;;;;;10472991;28;20354;-74
2021/03/03 06:42:28;;;;;;;9.63;3.70;;;;;;;;;;10468697;28;20699;-69
2021/03/03 06:47:31;;;;;;;7.47;3.20;;;;;;;;;;10472896;28;20316;-74
2021/03/03 06:52:37;;;;;;;12.13;3.40;;;;;;;;;;10496126;28;20583;-74
2021/03/03 06:57:38;;;;;;;7.80;3.17;;;;;;;;;;10472817;28;20794;-70
2021/03/03 07:02:43;;;;;;;9.80;3.77;;;;;;;;;;10484973;28;20283;-72
2021/03/03 07:07:59;;;;;;;10.27;3.80;;;;;;;;;;10491438;28;20224;-70
2021/03/03 07:13:03;;;;;;;10.40;3.43;;;;;;;;;;10473018;28;20185;-78
2021/03/03 07:18:26;;;;;;;9.63;3.73;;;;;;;;;;10480468;28;20266;-71
2021/03/03 07:23:43;;;;;;;8.83;3.63;;;;;;;;;;10478429;28;20235;-71
2021/03/03 07:28:45;;;;;;;9.20;3.37;;;;;;;;;;10457611;28;20248;-72
2021/03/03 07:33:50;;;;;;;6.97;3.43;;;;;;;;;;10484062;28;20192;-73
2021/03/03 07:38:53;;;;;;;10.13;3.30;;;;;;;;;;10511653;28;20212;-77
2021/03/03 07:43:56;;;;;;;9.43;3.47;;;;;;;;;;10499607;28;20267;-74
2021/03/03 07:48:59;;;;;;;11.10;3.20;;;;;;;;;;10502876;28;20330;-71
2021/03/03 07:54:04;;;;;;;7.53;2.70;;;;;;;;;;10468879;28;20189;-73
2021/03/03 07:59:06;;;;;;;8.40;3.00;;;;;;;;;;10498266;28;20307;-72
2021/03/03 08:04:09;;;;;;;7.60;3.10;;;;;;;;;;10469428;28;20217;-70
2021/03/03 08:09:13;;;;;;;7.77;2.97;;;;;;;;;;10496077;28;20208;-73
2021/03/03 08:14:33;;;;;;;7.93;3.00;;;;;;;;;;10451515;28;20214;-73
2021/03/03 08:19:51;;;;;;;7.67;3.00;;;;;;;;;;10486479;28;20744;-74
2021/03/03 08:24:53;;;;;;;8.53;3.27;;;;;;;;;;10484584;28;20218;-70
2021/03/03 08:30:08;;;;;;;12.70;4.30;;;;;;;;;;10462345;28;20216;-71
2021/03/03 08:35:37;;;;;;;8.80;2.80;;;;;;;;;;10488592;28;20191;-72
2021/03/03 08:40:38;;;;;;;10.27;2.93;;;;;;;;;;10479554;28;20220;-73
2021/03/03 08:45:40;;;;;;;10.13;3.03;;;;;;;;;;10474719;28;20224;-72
2021/03/03 08:50:46;;;;;;;9.13;3.23;;;;;;;;;;10480901;28;20348;-71
2021/03/03 08:55:49;;;;;;;9.87;3.07;;;;;;;;;;10488275;28;20180;-73
2021/03/03 09:00:50;;;;;;;8.27;3.27;;;;;;;;;;10463280;28;20212;-70
2021/03/03 09:05:53;;;;;;;10.47;3.40;;;;;;;;;;10492188;28;20243;-74
2021/03/03 09:10:55;;;;;;;9.50;3.30;;;;;;;;;;10500632;28;20219;-77
2021/03/03 09:16:03;;;;;;;9.53;3.70;;;;;;;;;;10472212;28;20193;-70
2021/03/03 09:21:07;;;;;;;7.30;3.60;;;;;;;;;;10497156;28;20552;-71
2021/03/03 09:26:17;;;;;;;12.47;4.53;;;;;;;;;;10492709;28;20221;-72
2021/03/03 09:31:37;;;;;;;12.90;5.37;;;;;;;;;;10463291;28;20192;-69
2021/03/03 09:36:40;;;;;;;12.87;5.23;;;;;;;;;;10475536;28;20203;-72
2021/03/03 09:41:53;;;;;;;12.10;5.97;;;;;;;;;;10453535;28;20201;-70
2021/03/03 09:46:59;;;;;;;17.13;5.77;;;;;;;;;;10472148;28;20561;-70
2021/03/03 09:52:03;;;;;;;12.73;7.50;;;;;;;;;;10469205;28;20664;-76
2021/03/03 09:57:06;;;;;;;11.67;7.17;;;;;;;;;;10491822;28;20588;-70
2021/03/03 10:02:09;;;;;;;16.33;8.80;;;;;;;;;;10479874;28;20224;-73
2021/03/03 10:07:12;;;;;;;16.00;10.03;;;;;;;;;;10486875;28;20324;-69
2021/03/03 10:12:15;;;;;;;16.40;8.67;;;;;;;;;;10498551;28;20211;-71
2021/03/03 10:17:27;;;;;;;16.27;9.23;;;;;;;;;;10485186;28;20291;-73
2021/03/03 10:22:30;;;;;;;16.10;7.87;;;;;;;;;;10497563;28;20191;-71
2021/03/03 10:27:36;;;;;;;13.43;7.43;;;;;;;;;;10481505;28;20297;-72
2021/03/03 10:32:41;;;;;;;11.13;6.70;;;;;;;;;;10483724;28;20214;-70
2021/03/03 10:37:43;;;;;;;11.90;6.83;;;;;;;;;;10491470;28;20236;-78
2021/03/03 10:42:45;;;;;;;14.80;7.33;;;;;;;;;;10474838;28;20647;-70
2021/03/03 10:47:49;;;;;;;13.40;7.93;;;;;;;;;;10462253;28;20298;-71
2021/03/03 10:53:08;;;;;;;14.83;7.93;;;;;;;;;;10474729;28;20275;-73
2021/03/03 10:58:10;;;;;;;12.90;8.00;;;;;;;;;;10490459;28;20217;-73
2021/03/03 11:03:12;;;;;;;12.93;6.83;;;;;;;;;;10503798;28;20196;-73
2021/03/03 11:08:15;;;;;;;13.07;6.60;;;;;;;;;;10460197;28;20228;-70
2021/03/03 11:13:17;;;;;;;12.93;6.37;;;;;;;;;;10496657;28;20246;-75
2021/03/03 11:18:18;;;;;;;11.43;6.77;;;;;;;;;;10485858;28;20216;-71
2021/03/03 11:23:21;;;;;;;10.50;6.23;;;;;;;;;;10487265;28;21446;-77
2021/03/03 11:28:23;;;;;;;13.67;5.83;;;;;;;;;;10472079;28;20220;-76
2021/03/03 11:33:24;;;;;;;16.27;8.30;;;;;;;;;;10480344;28;20197;-72
2021/03/03 11:38:27;;;;;;;11.73;6.03;;;;;;;;;;10471401;28;20306;-74
2021/03/03 11:43:29;;;;;;;9.60;5.70;;;;;;;;;;10497164;28;20225;-76
2021/03/03 11:48:30;;;;;;;12.00;6.07;;;;;;;;;;10486036;28;20223;-70
2021/03/03 11:53:34;;;;;;;9.90;5.83;;;;;;;;;;10446470;28;20513;-74
2021/03/03 11:58:36;;;;;;;10.67;5.63;;;;;;;;;;10493330;28;20271;-71
2021/03/03 12:03:39;;;;;;;10.80;5.77;;;;;;;;;;10484679;28;20228;-71
2021/03/03 12:08:42;;;;;;;11.20;5.60;;;;;;;;;;10450239;28;20211;-72
2021/03/03 12:13:43;;;;;;;10.73;5.73;;;;;;;;;;10477553;28;20200;-70
2021/03/03 12:18:45;;;;;;;10.60;5.50;;;;;;;;;;10488206;28;20286;-73
2021/03/03 12:23:47;;;;;;;10.03;5.10;;;;;;;;;;10462886;28;20192;-71
2021/03/03 12:28:49;;;;;;;10.20;5.50;;;;;;;;;;10457880;28;20691;-76
2021/03/03 12:33:51;;;;;;;10.30;5.00;;;;;;;;;;10493972;28;20675;-71
2021/03/03 12:38:53;;;;;;;8.40;4.80;;;;;;;;;;10462775;28;20635;-75
2021/03/03 12:43:55;;;;;;;10.03;4.80;;;;;;;;;;10501388;28;20193;-74
2021/03/03 12:48:56;;;;;;;10.07;4.97;;;;;;;;;;10472815;28;20290;-75
2021/03/03 12:53:59;;;;;;;8.87;4.67;;;;;;;;;;10495931;28;20332;-77
2021/03/03 12:59:00;;;;;;;11.43;5.20;;;;;;;;;;10501575;28;20209;-72
2021/03/03 13:04:05;;;;;;;9.67;5.10;;;;;;;;;;10475693;28;20671;-73
2021/03/03 13:09:07;;;;;;;10.27;4.60;;;;;;;;;;10480407;28;20244;-74
2021/03/03 13:14:09;;;;;;;9.33;4.50;;;;;;;;;;10458666;28;20687;-75
2021/03/03 13:19:11;;;;;;;8.23;4.10;;;;;;;;;;10464712;28;20224;-73
2021/03/03 13:24:13;;;;;;;10.00;4.30;;;;;;;;;;10469352;28;20216;-72
2021/03/03 13:29:15;;;;;;;7.87;4.00;;;;;;;;;;10486562;28;20266;-70
2021/03/03 13:34:17;;;;;;;8.43;3.60;;;;;;;;;;10492313;28;20199;-75
2021/03/03 13:39:20;;;;;;;7.00;3.43;;;;;;;;;;10467608;28;20772;-73
2021/03/03 13:44:21;;;;;;;8.27;3.30;;;;;;;;;;10476758;28;20211;-73
2021/03/03 13:49:23;;;;;;;9.03;3.57;;;;;;;;;;10466718;28;20316;-71
2021/03/03 13:54:25;;;;;;;7.90;3.50;;;;;;;;;;10457521;28;20625;-71
2021/03/03 13:59:27;;;;;;;9.30;3.67;;;;;;;;;;10468220;28;20243;-70
2021/03/03 14:04:29;;;;;;;8.30;3.90;;;;;;;;;;10463115;28;20290;-70
2021/03/03 14:09:31;;;;;;;11.00;4.27;;;;;;;;;;10468729;28;20268;-72
2021/03/03 14:14:33;;;;;;;11.07;4.30;;;;;;;;;;10480592;28;20211;-75
2021/03/03 14:19:35;;;;;;;9.73;4.17;;;;;;;;;;10525325;28;20296;-71
2021/03/03 14:24:39;;;;;;;8.20;4.03;;;;;;;;;;10475469;28;20677;-72
2021/03/03 14:29:41;;;;;;;10.77;4.63;;;;;;;;;;10491928;28;20273;-71
2021/03/03 14:34:42;;;;;;;9.67;4.00;;;;;;;;;;10503848;28;20203;-75
2021/03/03 14:39:45;;;;;;;9.03;4.50;;;;;;;;;;10492213;28;20294;-71
2021/03/03 14:44:46;;;;;;;10.30;4.07;;;;;;;;;;10492363;28;20212;-72
2021/03/03 14:49:48;;;;;;;11.30;4.33;;;;;;;;;;10478503;28;20236;-71
2021/03/03 14:54:50;;;;;;;8.73;4.03;;;;;;;;;;10483535;28;20180;-71
2021/03/03 14:59:52;;;;;;;10.80;4.43;;;;;;;;;;10481391;28;20220;-71
2021/03/03 15:04:55;;;;;;;9.07;4.27;;;;;;;;;;10480716;28;20295;-77
2021/03/03 15:09:58;;;;;;;9.63;4.33;;;;;;;;;;10465667;28;20271;-72
2021/03/03 15:14:59;;;;;;;14.77;5.13;;;;;;;;;;10488778;28;20288;-73
2021/03/03 15:20:04;;;;;;;13.00;4.67;;;;;;;;;;10455096;28;20223;-73
2021/03/03 15:25:07;;;;;;;10.60;4.50;;;;;;;;;;10468611;28;20351;-69
2021/03/03 15:30:09;;;;;;;12.50;4.63;;;;;;;;;;10485543;28;20330;-71
2021/03/03 15:35:11;;;;;;;11.67;4.73;;;;;;;;;;10470439;28;20197;-70
2021/03/03 15:40:14;;;;;;;11.90;4.70;;;;;;;;;;10474426;28;20217;-73
2021/03/03 15:45:16;;;;;;;11.43;4.97;;;;;;;;;;10493050;28;20211;-77
2021/03/03 15:50:18;;;;;;;10.80;5.00;;;;;;;;;;10451382;28;20626;-69
2021/03/03 15:55:20;;;;;;;12.70;4.97;;;;;;;;;;10500806;28;20253;-71
2021/03/03 16:00:22;;;;;;;11.73;5.67;;;;;;;;;;10465677;28;20215;-70
2021/03/03 16:05:24;;;;;;;12.83;5.13;;;;;;;;;;10486525;28;20215;-70
2021/03/03 16:10:27;;;;;;;13.73;5.37;;;;;;;;;;10455684;28;20358;-72
2021/03/03 16:15:28;;;;;;;13.67;5.50;;;;;;;;;;10493199;28;20208;-70
2021/03/03 16:20:30;;;;;;;14.00;5.60;;;;;;;;;;10480660;28;20573;-73
2021/03/03 16:25:32;;;;;;;16.10;7.17;;;;;;;;;;10474548;28;20600;-71
2021/03/03 16:30:34;;;;;;;13.17;5.90;;;;;;;;;;10476712;28;20644;-75
2021/03/03 16:35:36;;;;;;;14.47;5.73;;;;;;;;;;10471136;28;20189;-71
2021/03/03 16:40:39;;;;;;;18.23;6.17;;;;;;;;;;10484244;28;20222;-71
2021/03/03 16:45:41;;;;;;;15.47;5.70;;;;;;;;;;10454817;28;20300;-72
2021/03/03 16:50:43;;;;;;;18.40;7.93;;;;;;;;;;10486062;28;20321;-71
2021/03/03 16:55:46;;;;;;;14.03;7.03;;;;;;;;;;10467674;28;20192;-71
2021/03/03 17:00:48;;;;;;;12.60;6.23;;;;;;;;;;10498623;28;20225;-71
2021/03/03 17:05:50;;;;;;;16.67;6.23;;;;;;;;;;10476715;28;20209;-70
2021/03/03 17:10:53;;;;;;;13.20;5.93;;;;;;;;;;10491297;28;20213;-73
2021/03/03 17:15:54;;;;;;;15.47;6.07;;;;;;;;;;10472592;28;20260;-71
2021/03/03 17:20:56;;;;;;;14.30;6.43;;;;;;;;;;10481328;28;20212;-73
2021/03/03 17:25:58;;;;;;;14.40;6.47;;;;;;;;;;10475098;28;20274;-70
2021/03/03 17:31:00;;;;;;;13.37;6.00;;;;;;;;;;10514180;28;20211;-72
2021/03/03 17:36:04;;;;;;;17.90;6.90;;;;;;;;;;10497231;28;20185;-71
2021/03/03 17:41:07;;;;;;;15.37;6.60;;;;;;;;;;10490628;28;20295;-75
2021/03/03 17:46:08;;;;;;;15.87;6.77;;;;;;;;;;10461361;28;20772;-71
2021/03/03 17:51:11;;;;;;;14.90;6.90;;;;;;;;;;10463596;28;20285;-71
2021/03/03 17:56:13;;;;;;;17.97;6.60;;;;;;;;;;10491780;28;20548;-76
2021/03/03 18:01:15;;;;;;;17.37;6.53;;;;;;;;;;10499489;28;20288;-72
2021/03/03 18:06:17;;;;;;;14.43;7.37;;;;;;;;;;10473237;28;20247;-74
2021/03/03 18:11:19;;;;;;;16.77;6.70;;;;;;;;;;10471572;28;20540;-77
2021/03/03 18:16:23;;;;;;;13.23;6.73;;;;;;;;;;10490296;28;20200;-70
2021/03/03 18:21:25;;;;;;;18.73;7.00;;;;;;;;;;10500339;28;20291;-70
2021/03/03 18:26:28;;;;;;;16.67;7.13;;;;;;;;;;10477454;28;20248;-71
2021/03/03 18:31:29;;;;;;;17.07;7.27;;;;;;;;;;10485202;28;20213;-72
2021/03/03 18:36:31;;;;;;;17.00;7.17;;;;;;;;;;10458965;28;20193;-76
2021/03/03 18:41:34;;;;;;;19.93;7.17;;;;;;;;;;10488701;28;20235;-69
2021/03/03 18:46:38;;;;;;;20.73;8.90;;;;;;;;;;10505746;28;20213;-74
2021/03/03 18:51:40;;;;;;;19.97;8.53;;;;;;;;;;10493277;28;20196;-74
2021/03/03 18:56:42;;;;;;;16.50;7.40;;;;;;;;;;10465880;28;20200;-71
2021/03/03 19:01:44;;;;;;;22.77;8.30;;;;;;;;;;10488440;28;20212;-72
2021/03/03 19:06:46;;;;;;;26.03;8.77;;;;;;;;;;10485508;28;20213;-72
2021/03/03 19:11:48;;;;;;;17.03;8.40;;;;;;;;;;10466834;28;20201;-74
2021/03/03 19:16:50;;;;;;;19.63;9.17;;;;;;;;;;10479457;28;20205;-73
2021/03/03 19:21:52;;;;;;;17.23;8.37;;;;;;;;;;10470418;28;20201;-71
2021/03/03 19:26:54;;;;;;;18.40;7.47;;;;;;;;;;10460841;28;20290;-70
2021/03/03 19:31:56;;;;;;;15.80;7.30;;;;;;;;;;10478531;28;20269;-70
2021/03/03 19:36:58;;;;;;;21.13;8.13;;;;;;;;;;10506277;28;20269;-77
2021/03/03 19:42:00;;;;;;;17.40;7.70;;;;;;;;;;10455929;28;20215;-72
2021/03/03 19:47:05;;;;;;;17.70;7.73;;;;;;;;;;10470668;28;20239;-75
2021/03/03 19:52:13;;;;;;;16.33;7.63;;;;;;;;;;10478112;28;20260;-77
2021/03/03 19:57:17;;;;;;;20.83;7.30;;;;;;;;;;10458388;28;20204;-73
2021/03/03 20:02:19;;;;;;;16.00;7.83;;;;;;;;;;10475855;28;20637;-74
2021/03/03 20:07:21;;;;;;;16.43;7.77;;;;;;;;;;10481601;28;20650;-71
2021/03/03 20:12:23;;;;;;;19.63;7.90;;;;;;;;;;10486185;28;20231;-73
2021/03/03 20:17:25;;;;;;;20.57;7.60;;;;;;;;;;10515449;28;20282;-72
2021/03/03 20:22:27;;;;;;;16.90;7.70;;;;;;;;;;10497442;28;20214;-72
2021/03/03 20:27:29;;;;;;;21.67;9.10;;;;;;;;;;10470272;28;20228;-78
2021/03/03 20:32:31;;;;;;;19.20;7.50;;;;;;;;;;10510489;28;20274;-72
2021/03/03 20:37:33;;;;;;;15.03;7.23;;;;;;;;;;10487869;28;20315;-71
2021/03/03 20:42:35;;;;;;;15.87;7.10;;;;;;;;;;10489489;28;20663;-71
2021/03/03 20:47:40;;;;;;;16.60;7.50;;;;;;;;;;10444023;28;20239;-74
2021/03/03 20:52:46;;;;;;;15.43;6.70;;;;;;;;;;10482844;28;20192;-71
2021/03/03 20:57:49;;;;;;;19.90;7.73;;;;;;;;;;10473982;28;20572;-71
2021/03/03 21:02:50;;;;;;;15.87;7.07;;;;;;;;;;10485191;28;20279;-72
2021/03/03 21:07:52;;;;;;;14.97;6.10;;;;;;;;;;10485660;28;20231;-73
2021/03/03 21:12:54;;;;;;;18.80;6.77;;;;;;;;;;10480706;28;20661;-70
2021/03/03 21:18:08;;;;;;;12.83;6.77;;;;;;;;;;10485606;28;20308;-72
2021/03/03 21:23:10;;;;;;;13.10;5.43;;;;;;;;;;10483442;28;20659;-70
2021/03/03 21:28:12;;;;;;;14.50;6.40;;;;;;;;;;10475469;28;20224;-71
2021/03/03 21:33:14;;;;;;;15.50;7.23;;;;;;;;;;10456545;28;20207;-70
2021/03/03 21:38:16;;;;;;;15.07;6.30;;;;;;;;;;10481279;28;20263;-72
2021/03/03 21:43:31;;;;;;;15.80;6.37;;;;;;;;;;10467333;28;20196;-73
2021/03/03 21:48:33;;;;;;;11.60;5.57;;;;;;;;;;10493058;28;20282;-75
2021/03/03 21:53:34;;;;;;;12.77;6.10;;;;;;;;;;10487386;28;20340;-77
2021/03/03 21:58:37;;;;;;;13.77;6.10;;;;;;;;;;10481166;28;20256;-71
2021/03/03 22:03:39;;;;;;;13.70;6.70;;;;;;;;;;10530378;28;20192;-72
2021/03/03 22:08:41;;;;;;;13.93;6.43;;;;;;;;;;10494947;28;20219;-71
2021/03/03 22:13:43;;;;;;;15.17;7.57;;;;;;;;;;10475878;28;20641;-73
2021/03/03 22:18:48;;;;;;;10.73;5.63;;;;;;;;;;10491142;28;20203;-77
2021/03/03 22:23:51;;;;;;;15.33;5.97;;;;;;;;;;10488000;28;20256;-73
2021/03/03 22:28:53;;;;;;;11.10;5.50;;;;;;;;;;10486987;28;20655;-76
2021/03/03 22:33:55;;;;;;;10.73;5.50;;;;;;;;;;10469027;28;20287;-74
2021/03/03 22:38:57;;;;;;;11.43;5.80;;;;;;;;;;10480937;28;20238;-74
2021/03/03 22:43:59;;;;;;;12.53;5.40;;;;;;;;;;10454073;28;20189;-75
2021/03/03 22:49:09;;;;;;;10.37;5.17;;;;;;;;;;10461868;28;20255;-78
2021/03/03 22:54:11;;;;;;;10.63;5.37;;;;;;;;;;10472646;28;20314;-72
2021/03/03 22:59:14;;;;;;;11.87;5.10;;;;;;;;;;10492552;28;20260;-76
2021/03/03 23:04:18;;;;;;;10.57;5.10;;;;;;;;;;10494894;28;20312;-79
2021/03/03 23:09:20;;;;;;;11.10;4.83;;;;;;;;;;10476477;28;20227;-73
2021/03/03 23:14:22;;;;;;;10.00;5.17;;;;;;;;;;10480469;28;20188;-74
2021/03/03 23:19:31;;;;;;;10.10;4.93;;;;;;;;;;10472459;28;20283;-74
2021/03/03 23:24:33;;;;;;;10.23;4.73;;;;;;;;;;10482474;28;20200;-73
2021/03/03 23:29:36;;;;;;;10.97;4.87;;;;;;;;;;10472802;28;20228;-74
2021/03/03 23:34:38;;;;;;;9.73;4.90;;;;;;;;;;10474837;28;20224;-75
2021/03/03 23:39:40;;;;;;;9.23;4.53;;;;;;;;;;10478147;28;20227;-73
2021/03/03 23:44:42;;;;;;;9.80;5.10;;;;;;;;;;10463818;28;20198;-75
2021/03/03 23:49:53;;;;;;;9.27;4.67;;;;;;;;;;10486491;28;20278;-75
2021/03/03 23:54:55;;;;;;;11.27;4.73;;;;;;;;;;10479644;28;20575;-76
2021/03/03 23:59:58;;;;;;;11.70;4.73;;;;;;;;;;10493015;28;20277;-73
